createdAt,value
2023-01-02T00:01:51.503Z,13.22
2023-01-02T00:04:24.508Z,13.27
2023-01-02T00:06:57.283Z,13.36
2023-01-02T00:09:30.016Z,13.27
2023-01-02T00:12:03.458Z,13.29
2023-01-02T00:14:37.650Z,13.31
2023-01-02T00:17:10.372Z,13.36
2023-01-02T00:19:43.121Z,13.37
2023-01-02T00:22:15.905Z,13.34
2023-01-02T00:24:48.753Z,13.34
2023-01-02T00:27:21.620Z,13.40
2023-01-02T00:29:55.755Z,13.30
2023-01-02T00:32:29.223Z,13.33
2023-01-02T00:35:01.981Z,13.39
2023-01-02T00:37:34.827Z,13.40
2023-01-02T00:40:13.608Z,13.36
2023-01-02T00:42:46.408Z,13.43
2023-01-02T00:45:20.537Z,13.59
2023-01-02T00:47:53.386Z,13.45
2023-01-02T00:50:26.351Z,13.43
2023-01-02T00:52:59.120Z,13.39
2023-01-02T00:55:31.861Z,13.40
2023-01-02T00:58:04.725Z,13.39
2023-01-02T01:00:41.228Z,13.35
2023-01-02T01:03:13.995Z,13.34
2023-01-02T01:05:46.928Z,13.50
2023-01-02T01:08:19.655Z,13.50
2023-01-02T01:10:52.759Z,13.47
2023-01-02T01:13:25.541Z,13.37
2023-01-02T01:16:06.093Z,13.28
2023-01-02T01:18:39.114Z,13.25
2023-01-02T01:21:13.857Z,13.16
2023-01-02T01:23:51.193Z,13.17
2023-01-02T01:26:24.310Z,13.21
2023-01-02T01:28:57.695Z,13.41
2023-01-02T01:31:31.833Z,13.53
2023-01-02T01:34:04.626Z,13.50
2023-01-02T01:36:37.581Z,13.42
2023-01-02T01:39:10.320Z,13.40
2023-01-02T01:41:43.087Z,13.45
2023-01-02T01:44:47.208Z,13.32
2023-01-02T01:47:26.992Z,13.26
2023-01-02T01:50:06.105Z,13.28
2023-01-02T01:52:43.156Z,13.22
2023-01-02T01:55:20.090Z,13.19
2023-01-02T01:57:57.372Z,13.21
2023-01-02T02:00:30.794Z,13.15
2023-01-02T02:03:10.257Z,12.98
2023-01-02T02:05:44.678Z,12.92
2023-01-02T02:08:20.752Z,12.83
2023-01-02T02:10:54.443Z,12.84
2023-01-02T02:13:27.484Z,12.93
2023-01-02T02:16:11.391Z,12.99
2023-01-02T02:18:59.559Z,12.90
2023-01-02T02:21:49.010Z,12.86
2023-01-02T02:24:44.817Z,13.10
2023-01-02T02:27:49.126Z,13.05
2023-01-02T02:30:24.647Z,12.97
2023-01-02T02:33:21.344Z,13.05
2023-01-02T02:36:04.207Z,13.16
2023-01-02T02:38:49.035Z,13.16
2023-01-02T02:41:34.668Z,13.20
2023-01-02T02:44:21.919Z,13.32
2023-01-02T02:47:00.916Z,13.27
2023-01-02T02:49:47.379Z,13.40
2023-01-02T02:52:27.831Z,13.46
2023-01-02T02:55:02.530Z,13.43
2023-01-02T02:57:37.867Z,13.39
2023-01-02T03:00:15.150Z,13.32
2023-01-02T03:02:49.951Z,13.25
2023-01-02T03:05:29.583Z,13.25
2023-01-02T03:08:10.679Z,13.25
2023-01-02T03:10:50.943Z,13.23
2023-01-02T03:13:40.959Z,13.31
2023-01-02T03:16:21.293Z,13.27
2023-01-02T03:19:02.741Z,13.33
2023-01-02T03:21:38.012Z,13.31
2023-01-02T03:24:15.100Z,13.27
2023-01-02T03:26:51.151Z,13.22
2023-01-02T03:29:32.131Z,13.22
2023-01-02T03:32:09.853Z,13.24
2023-01-02T03:34:49.144Z,13.20
2023-01-02T03:37:27.428Z,13.19
2023-01-02T03:40:04.880Z,13.22
2023-01-02T03:42:44.168Z,13.27
2023-01-02T03:45:21.919Z,13.10
2023-01-02T03:48:10.906Z,13.10
2023-01-02T03:50:51.084Z,13.09
2023-01-02T03:53:25.004Z,13.09
2023-01-02T03:56:08.548Z,13.02
2023-01-02T03:58:46.772Z,13.17
2023-01-02T04:01:32.058Z,13.03
2023-01-02T04:04:12.671Z,12.97
2023-01-02T04:06:52.704Z,12.89
2023-01-02T04:09:28.488Z,13.01
2023-01-02T04:12:06.148Z,12.92
2023-01-02T04:14:45.143Z,12.88
2023-01-02T04:17:21.266Z,12.67
2023-01-02T04:20:00.249Z,12.65
2023-01-02T04:22:41.302Z,12.83
2023-01-02T04:25:16.591Z,13.02
2023-01-02T04:27:54.264Z,12.88
2023-01-02T04:30:30.267Z,12.90
2023-01-02T04:33:09.015Z,12.77
2023-01-02T04:35:41.902Z,12.72
2023-01-02T04:38:16.120Z,12.58
2023-01-02T04:40:49.866Z,12.58
2023-01-02T04:43:22.845Z,12.58
2023-01-02T04:45:55.744Z,12.56
2023-01-02T04:48:28.571Z,12.60
2023-01-02T04:51:01.322Z,12.57
2023-01-02T04:53:35.475Z,12.50
2023-01-02T04:56:08.904Z,12.41
2023-01-02T04:58:41.668Z,12.47
2023-01-02T05:01:16.689Z,12.56
2023-01-02T05:03:52.706Z,12.57
2023-01-02T05:06:25.806Z,12.61
2023-01-02T05:09:00.894Z,12.71
2023-01-02T05:11:33.646Z,12.64
2023-01-02T05:14:07.813Z,12.49
2023-01-02T05:16:40.914Z,12.47
2023-01-02T05:19:13.954Z,12.45
2023-01-02T05:22:04.259Z,12.39
2023-01-02T05:24:38.431Z,12.58
2023-01-02T05:27:11.220Z,12.60
2023-01-02T05:29:44.190Z,12.32
2023-01-02T05:32:16.958Z,12.34
2023-01-02T05:34:49.942Z,12.13
2023-01-02T05:37:22.702Z,12.14
2023-01-02T05:39:57.042Z,12.11
2023-01-02T05:42:29.797Z,12.20
2023-01-02T05:45:02.641Z,12.35
2023-01-02T05:47:35.497Z,12.13
2023-01-02T05:50:09.799Z,12.27
2023-01-02T05:52:45.885Z,12.22
2023-01-02T05:55:20.484Z,12.25
2023-01-02T05:57:55.639Z,12.37
2023-01-02T06:00:28.433Z,12.42
2023-01-02T06:03:01.229Z,12.52
2023-01-02T06:05:35.770Z,12.63
2023-01-02T06:08:08.510Z,12.45
2023-01-02T06:10:50.731Z,12.37
2023-01-02T06:13:23.477Z,12.46
2023-01-02T06:15:56.358Z,12.38
2023-01-02T06:18:31.065Z,12.54
2023-01-02T06:21:06.467Z,12.49
2023-01-02T06:23:39.855Z,12.63
2023-01-02T06:26:16.338Z,12.86
2023-01-02T06:28:51.268Z,12.49
2023-01-02T06:31:26.830Z,12.38
2023-01-02T06:34:01.608Z,12.21
2023-01-02T06:36:35.485Z,12.21
2023-01-02T06:39:08.359Z,12.25
2023-01-02T06:41:42.515Z,12.26
2023-01-02T06:44:16.529Z,12.19
2023-01-02T06:46:49.458Z,12.67
2023-01-02T06:49:22.267Z,12.52
2023-01-02T06:51:55.033Z,12.69
2023-01-02T06:54:27.879Z,12.58
2023-01-02T06:57:02.021Z,12.63
2023-01-02T06:59:34.823Z,12.57
2023-01-02T07:02:07.761Z,12.53
2023-01-02T07:04:41.514Z,12.39
2023-01-02T07:07:14.317Z,12.32
2023-01-02T07:09:47.120Z,12.27
2023-01-02T07:12:21.175Z,12.24
2023-01-02T07:14:53.965Z,12.31
2023-01-02T07:17:26.711Z,12.18
2023-01-02T07:20:02.234Z,12.11
2023-01-02T07:22:35.570Z,11.98
2023-01-02T07:25:09.249Z,11.96
2023-01-02T07:27:43.379Z,11.84
2023-01-02T07:30:16.530Z,11.46
2023-01-02T07:32:49.487Z,11.63
2023-01-02T07:35:22.458Z,11.55
2023-01-02T07:37:55.208Z,11.13
2023-01-02T07:40:32.146Z,11.42
2023-01-02T07:43:06.772Z,11.42
2023-01-02T07:45:42.516Z,11.13
2023-01-02T07:48:17.780Z,11.27
2023-01-02T07:50:50.588Z,11.54
2023-01-02T07:53:23.628Z,11.45
2023-01-02T07:55:56.930Z,11.32
2023-01-02T07:58:31.745Z,11.13
2023-01-02T08:01:09.306Z,11.18
2023-01-02T08:03:42.411Z,11.42
2023-01-02T08:06:17.242Z,11.28
2023-01-02T08:08:50.358Z,11.40
2023-01-02T08:11:23.983Z,11.25
2023-01-02T08:13:58.613Z,11.32
2023-01-02T08:16:31.465Z,11.37
2023-01-02T08:19:04.256Z,11.37
2023-01-02T08:21:37.212Z,11.14
2023-01-02T08:24:10.248Z,11.19
2023-01-02T08:26:44.718Z,11.27
2023-01-02T08:29:19.161Z,11.46
2023-01-02T08:31:51.972Z,11.25
2023-01-02T08:34:24.762Z,11.14
2023-01-02T08:36:57.563Z,10.94
2023-01-02T08:39:31.348Z,11.26
2023-01-02T08:42:04.318Z,11.27
2023-01-02T08:44:38.640Z,11.28
2023-01-02T08:47:11.558Z,11.47
2023-01-02T08:49:44.302Z,11.40
2023-01-02T08:52:17.116Z,11.48
2023-01-02T08:54:49.862Z,11.61
2023-01-02T08:57:22.686Z,11.68
2023-01-02T08:59:57.060Z,11.71
2023-01-02T09:02:30.215Z,11.55
2023-01-02T09:05:03.162Z,11.26
2023-01-02T09:07:35.946Z,11.03
2023-01-02T09:10:09.639Z,11.08
2023-01-02T09:12:42.392Z,10.84
2023-01-02T09:15:16.675Z,11.11
2023-01-02T09:17:49.563Z,11.21
2023-01-02T09:20:22.347Z,11.04
2023-01-02T09:22:55.137Z,11.03
2023-01-02T09:25:27.892Z,10.95
2023-01-02T09:28:00.806Z,11.08
2023-01-02T09:30:34.902Z,11.17
2023-01-02T09:33:08.959Z,11.21
2023-01-02T09:35:41.746Z,11.21
2023-01-02T09:38:14.728Z,11.66
2023-01-02T09:40:50.302Z,11.81
2023-01-02T09:43:31.943Z,11.96
2023-01-02T09:46:08.321Z,12.04
2023-01-02T09:48:41.202Z,12.31
2023-01-02T09:51:14.221Z,12.30
2023-01-02T09:53:47.342Z,12.51
2023-01-02T09:56:30.363Z,12.65
2023-01-02T09:59:14.090Z,12.70
2023-01-02T10:01:57.318Z,12.84
2023-01-02T10:04:47.994Z,13.38
2023-01-02T10:07:24.467Z,13.80
2023-01-02T10:10:03.944Z,13.47
2023-01-02T10:12:42.721Z,13.71
2023-01-02T10:15:21.081Z,13.74
2023-01-02T10:17:59.609Z,13.79
2023-01-02T10:20:40.112Z,14.29
2023-01-02T10:23:14.541Z,14.61
2023-01-02T10:25:53.107Z,14.95
2023-01-02T10:28:35.887Z,15.59
2023-01-02T10:31:15.622Z,15.87
2023-01-02T10:33:55.082Z,16.10
2023-01-02T10:36:31.032Z,16.25
2023-01-02T10:39:07.197Z,16.07
2023-01-02T10:41:41.022Z,15.70
2023-01-02T10:44:25.967Z,15.94
2023-01-02T10:47:00.553Z,15.65
2023-01-02T10:49:37.778Z,15.79
2023-01-02T10:52:16.665Z,15.97
2023-01-02T10:54:58.552Z,16.13
2023-01-02T10:57:40.151Z,16.45
2023-01-02T11:00:30.354Z,16.40
2023-01-02T11:03:09.105Z,16.55
2023-01-02T11:05:48.993Z,16.57
2023-01-02T11:08:24.323Z,16.55
2023-01-02T11:10:57.161Z,16.31
2023-01-02T11:13:50.467Z,16.38
2023-01-02T11:16:28.041Z,16.03
2023-01-02T11:19:02.117Z,16.13
2023-01-02T11:21:39.988Z,16.22
2023-01-02T11:24:16.860Z,16.22
2023-01-02T11:26:52.843Z,16.28
2023-01-02T11:29:30.823Z,16.32
2023-01-02T11:32:05.366Z,16.39
2023-01-02T11:34:40.627Z,16.75
2023-01-02T11:37:18.213Z,16.88
2023-01-02T11:40:00.040Z,16.57
2023-01-02T11:42:58.121Z,16.66
2023-01-02T11:45:31.982Z,16.52
2023-01-02T11:48:07.917Z,16.44
2023-01-02T11:50:41.279Z,16.44
2023-01-02T11:53:22.000Z,16.28
2023-01-02T11:55:57.844Z,16.10
2023-01-02T11:58:38.503Z,16.35
2023-01-02T12:01:19.126Z,16.52
2023-01-02T12:03:52.185Z,16.72
2023-01-02T12:06:33.424Z,16.66
2023-01-02T12:09:12.319Z,16.86
2023-01-02T12:12:02.932Z,16.94
2023-01-02T12:14:54.388Z,16.87
2023-01-02T12:17:38.407Z,17.18
2023-01-02T12:20:25.356Z,16.89
2023-01-02T12:23:28.867Z,16.59
2023-01-02T12:26:10.054Z,16.21
2023-01-02T12:28:59.041Z,16.15
2023-01-02T12:31:49.580Z,15.94
2023-01-02T12:34:39.567Z,15.72
2023-01-02T12:37:25.760Z,15.63
2023-01-02T12:40:11.033Z,15.66
2023-01-02T12:43:10.111Z,15.90
2023-01-02T12:45:52.006Z,15.86
2023-01-02T12:48:38.284Z,16.19
2023-01-02T12:51:18.497Z,16.54
2023-01-02T12:54:18.883Z,16.74
2023-01-02T12:57:03.776Z,16.63
2023-01-02T13:00:02.467Z,16.49
2023-01-02T13:02:52.038Z,16.48
2023-01-02T13:05:33.496Z,16.33
2023-01-02T13:08:14.949Z,16.18
2023-01-02T13:10:49.119Z,16.14
2023-01-02T13:13:26.627Z,16.24
2023-01-02T13:16:11.372Z,15.92
2023-01-02T13:19:01.264Z,15.64
2023-01-02T13:21:39.450Z,15.62
2023-01-02T13:24:16.746Z,15.63
2023-01-02T13:26:50.246Z,15.55
2023-01-02T13:29:29.374Z,15.37
2023-01-02T13:32:03.576Z,15.26
2023-01-02T13:34:41.018Z,15.14
2023-01-02T13:37:17.751Z,15.08
2023-01-02T13:39:53.823Z,15.12
2023-01-02T13:42:46.941Z,14.98
2023-01-02T13:45:24.797Z,14.92
2023-01-02T13:48:01.319Z,14.79
2023-01-02T13:50:36.265Z,14.77
2023-01-02T13:53:27.540Z,14.84
2023-01-02T13:56:07.841Z,14.82
2023-01-02T13:58:49.410Z,14.79
2023-01-02T14:01:42.722Z,14.79
2023-01-02T14:04:33.065Z,14.83
2023-01-02T14:07:46.225Z,14.75
2023-01-02T14:10:34.476Z,14.77
2023-01-02T14:13:13.312Z,14.65
2023-01-02T14:16:15.906Z,14.49
2023-01-02T14:19:04.612Z,14.68
2023-01-02T14:21:43.334Z,14.65
2023-01-02T14:24:30.132Z,14.59
2023-01-02T14:27:05.637Z,14.56
2023-01-02T14:29:50.620Z,14.70
2023-01-02T14:32:37.687Z,14.70
2023-01-02T14:35:27.058Z,14.54
2023-01-02T14:38:17.176Z,14.58
2023-01-02T14:40:50.685Z,14.52
2023-01-02T14:43:31.827Z,14.44
2023-01-02T14:46:11.321Z,14.46
2023-01-02T14:48:52.841Z,14.48
2023-01-02T14:51:33.194Z,14.47
2023-01-02T14:54:16.533Z,14.53
2023-01-02T14:56:54.006Z,14.38
2023-01-02T14:59:31.426Z,14.40
2023-01-02T15:02:07.787Z,14.42
2023-01-02T15:04:45.895Z,14.31
2023-01-02T15:07:26.392Z,14.31
2023-01-02T15:10:02.971Z,14.22
2023-01-02T15:13:01.767Z,14.34
2023-01-02T15:15:39.459Z,14.13
2023-01-02T15:18:18.884Z,14.13
2023-01-02T15:20:52.039Z,14.06
2023-01-02T15:23:27.307Z,13.93
2023-01-02T15:26:33.405Z,13.92
2023-01-02T15:28:59.399Z,13.78
2023-01-02T15:31:32.530Z,13.82
2023-01-02T15:34:05.374Z,13.64
2023-01-02T15:36:40.896Z,13.56
2023-01-02T15:39:17.857Z,13.64
2023-01-02T15:41:55.151Z,13.54
2023-01-02T15:44:48.368Z,13.40
2023-01-02T15:47:27.533Z,13.51
2023-01-02T15:50:01.641Z,13.31
2023-01-02T15:52:34.643Z,13.36
2023-01-02T15:55:15.120Z,13.39
2023-01-02T15:57:50.094Z,13.23
2023-01-02T16:00:34.683Z,13.18
2023-01-02T16:03:08.447Z,13.02
2023-01-02T16:05:47.356Z,13.00
2023-01-02T16:08:23.017Z,13.19
2023-01-02T16:11:02.057Z,12.98
2023-01-02T16:14:02.164Z,13.14
2023-01-02T16:16:46.571Z,13.14
2023-01-02T16:19:25.668Z,13.10
2023-01-02T16:22:05.385Z,13.16
2023-01-02T16:24:44.813Z,13.16
2023-01-02T16:27:26.254Z,13.27
2023-01-02T16:30:00.780Z,13.20
2023-01-02T16:32:34.112Z,13.15
2023-01-02T16:35:21.192Z,13.02
2023-01-02T16:37:56.576Z,13.07
2023-01-02T16:41:00.268Z,12.89
2023-01-02T16:43:43.119Z,12.92
2023-01-02T16:46:17.837Z,12.88
2023-01-02T16:48:50.638Z,12.93
2023-01-02T16:51:23.602Z,12.85
2023-01-02T16:53:56.533Z,12.86
2023-01-02T16:56:29.443Z,12.88
2023-01-02T16:59:02.353Z,12.82
2023-01-02T17:01:36.980Z,12.90
2023-01-02T17:04:12.821Z,12.77
2023-01-02T17:06:45.598Z,12.81
2023-01-02T17:09:18.359Z,12.66
2023-01-02T17:12:00.907Z,12.61
2023-01-02T17:14:34.506Z,12.72
2023-01-02T17:17:08.602Z,12.79
2023-01-02T17:19:41.361Z,12.83
2023-01-02T17:22:14.146Z,12.73
2023-01-02T17:24:47.052Z,12.82
2023-01-02T17:27:21.727Z,12.85
2023-01-02T17:29:54.901Z,13.04
2023-01-02T17:32:29.052Z,13.13
2023-01-02T17:35:01.863Z,13.16
2023-01-02T17:37:34.750Z,13.07
2023-01-02T17:40:09.870Z,13.08
2023-01-02T17:42:42.692Z,13.10
2023-01-02T17:45:15.478Z,13.20
2023-01-02T17:48:11.177Z,13.04
2023-01-02T17:50:42.502Z,12.97
2023-01-02T17:53:15.279Z,13.02
2023-01-02T17:55:51.895Z,13.09
2023-01-02T17:58:45.140Z,12.99
2023-01-02T18:01:20.274Z,12.90
2023-01-02T18:03:54.520Z,12.86
2023-01-02T18:06:27.421Z,12.85
2023-01-02T18:09:00.410Z,12.84
2023-01-02T18:11:35.196Z,12.77
2023-01-02T18:14:18.322Z,12.77
2023-01-02T18:16:51.744Z,12.72
2023-01-02T18:19:27.646Z,12.67
2023-01-02T18:22:00.676Z,12.59
2023-01-02T18:24:33.683Z,12.67
2023-01-02T18:27:20.697Z,12.55
2023-01-02T18:29:59.093Z,12.51
2023-01-02T18:32:35.459Z,12.55
2023-01-02T18:35:55.615Z,12.43
2023-01-02T18:38:20.728Z,12.33
2023-01-02T18:40:54.168Z,12.23
2023-01-02T18:43:29.956Z,12.36
2023-01-02T18:46:18.234Z,12.15
2023-01-02T18:48:52.034Z,12.22
2023-01-02T18:51:26.177Z,12.25
2023-01-02T18:53:59.033Z,12.04
2023-01-02T18:56:32.297Z,11.98
2023-01-02T18:59:15.670Z,12.01
2023-01-02T19:01:51.394Z,11.94
2023-01-02T19:04:28.676Z,11.91
2023-01-02T19:07:20.562Z,11.97
2023-01-02T19:09:57.115Z,11.93
2023-01-02T19:12:47.610Z,11.72
2023-01-02T19:15:42.987Z,11.41
2023-01-02T19:18:33.569Z,11.16
2023-01-02T19:21:16.871Z,11.14
2023-01-02T19:23:58.036Z,11.06
2023-01-02T19:26:36.425Z,11.04
2023-01-02T19:29:18.410Z,11.11
2023-01-02T19:31:54.994Z,11.08
2023-01-02T19:34:37.114Z,10.99
2023-01-02T19:37:24.431Z,10.99
2023-01-02T19:40:02.112Z,11.01
2023-01-02T19:42:35.494Z,10.98
2023-01-02T19:45:11.806Z,11.02
2023-01-02T19:47:44.682Z,10.90
2023-01-02T19:50:20.262Z,10.85
2023-01-02T19:52:53.185Z,10.93
2023-01-02T19:55:27.336Z,10.85
2023-01-02T19:58:00.343Z,10.77
2023-01-02T20:00:34.386Z,10.92
2023-01-02T20:03:07.628Z,10.77
2023-01-02T20:05:40.507Z,10.69
2023-01-02T20:08:13.349Z,10.69
2023-01-02T20:10:47.652Z,10.69
2023-01-02T20:13:20.449Z,10.71
2023-01-02T20:15:53.365Z,10.78
2023-01-02T20:18:26.148Z,10.79
2023-01-02T20:20:59.078Z,10.75
2023-01-02T20:23:31.847Z,10.81
2023-01-02T20:26:06.825Z,10.56
2023-01-02T20:28:39.555Z,10.68
2023-01-02T20:31:12.376Z,10.67
2023-01-02T20:33:45.401Z,10.80
2023-01-02T20:36:18.283Z,10.57
2023-01-02T20:38:52.763Z,10.57
2023-01-02T20:41:26.949Z,10.54
2023-01-02T20:43:59.781Z,10.49
2023-01-02T20:46:32.676Z,10.50
2023-01-02T20:49:06.210Z,10.47
2023-01-02T20:51:39.239Z,10.44
2023-01-02T20:54:12.029Z,10.56
2023-01-02T20:56:46.232Z,10.57
2023-01-02T20:59:19.037Z,10.49
2023-01-02T21:01:52.003Z,10.57
2023-01-02T21:04:34.237Z,10.40
2023-01-02T21:07:09.535Z,10.47
2023-01-02T21:09:42.420Z,10.42
2023-01-02T21:12:34.174Z,10.43
2023-01-02T21:15:07.696Z,10.56
2023-01-02T21:17:40.497Z,10.36
2023-01-02T21:20:13.304Z,10.40
2023-01-02T21:22:46.106Z,10.46
2023-01-02T21:25:18.926Z,10.43
2023-01-02T21:27:53.098Z,10.49
2023-01-02T21:30:25.889Z,10.41
2023-01-02T21:32:58.719Z,10.46
2023-01-02T21:35:31.494Z,10.48
2023-01-02T21:38:04.785Z,10.56
2023-01-02T21:40:37.829Z,10.41
2023-01-02T21:43:12.720Z,10.47
2023-01-02T21:45:45.473Z,10.31
2023-01-02T21:48:18.462Z,10.37
2023-01-02T21:50:51.252Z,10.31
2023-01-02T21:53:24.062Z,10.30
2023-01-02T21:55:56.837Z,10.22
2023-01-02T21:58:32.488Z,10.11
2023-01-02T22:01:05.634Z,10.09
2023-01-02T22:03:38.510Z,9.95
2023-01-02T22:06:11.284Z,9.79
2023-01-02T22:08:44.112Z,9.90
2023-01-02T22:11:35.959Z,9.77
2023-01-02T22:14:09.987Z,9.78
2023-01-02T22:16:43.071Z,9.74
2023-01-02T22:19:16.152Z,9.83
2023-01-02T22:21:49.150Z,9.85
2023-01-02T22:24:23.719Z,9.80
2023-01-02T22:26:58.436Z,9.76
2023-01-02T22:30:09.496Z,9.83
2023-01-02T22:32:27.564Z,9.76
2023-01-02T22:35:02.560Z,9.66
2023-01-02T22:37:35.351Z,9.69
2023-01-02T22:40:08.999Z,9.78
2023-01-02T22:43:02.217Z,9.72
2023-01-02T22:45:43.830Z,9.67
2023-01-02T22:48:20.665Z,9.61
2023-01-02T22:50:56.052Z,9.53
2023-01-02T22:53:30.408Z,9.49
2023-01-02T22:56:11.717Z,9.47
2023-01-02T22:58:44.592Z,9.53
2023-01-02T23:01:23.548Z,9.45
2023-01-02T23:03:56.483Z,9.43
2023-01-02T23:06:29.914Z,9.57
2023-01-02T23:09:02.763Z,9.36
2023-01-02T23:11:35.656Z,9.29
2023-01-02T23:14:09.042Z,9.43
2023-01-02T23:17:00.779Z,9.27
2023-01-02T23:19:33.701Z,9.32
2023-01-02T23:22:06.572Z,9.29
2023-01-02T23:24:40.734Z,9.40
2023-01-02T23:27:13.925Z,9.24
2023-01-02T23:29:46.711Z,9.38
2023-01-02T23:32:20.870Z,9.27
2023-01-02T23:34:53.792Z,9.31
2023-01-02T23:37:27.355Z,9.11
2023-01-02T23:40:00.334Z,9.10
2023-01-02T23:42:33.146Z,9.15
2023-01-02T23:45:06.561Z,9.39
2023-01-02T23:47:40.798Z,9.27
2023-01-02T23:50:15.609Z,9.16
2023-01-02T23:52:48.441Z,9.23
2023-01-02T23:55:21.280Z,9.03
2023-01-02T23:57:54.116Z,9.13
